Missouri River (Missouri), Boonville (06909000)

StateMissouriLatestUnknown (94000 cfs)
RiverMissouri RiverRatingObservedEstimated
Updated2020-08-06 11:30 (22 minutes ago)Flood - The river is flooding. Obstacles can be treacherous or deadly. The river should be avoided at this stage for casual trips and definitely for the inexperienced. Trips should be attempted only with protective gear and equipment.Flood(none)(none)
Discharge94000 cfs (median: 58400 cfs)High - The river is high and potentially dangerous, especially for the young and / or inexperienced. Normal stream obstacles are sometimes difficult to navigate. Extended distances can be attempted, but canoe travel may not be advisable.High(none)(none)
Height13.89 feetGood - Conditions are ideal for a canoe or kayak. Boats typically will drag on fewer than one-quarter of riffles, if at all, and portages are unnecessary or rare. Normal float lengths can be attempted without a problem.Good(none)(none)
TrendSteady (falling over 24 hours)Low - River is low but can still be floated. Some riffles are okay but most come with significant dragging and might need a portage. Float lengths should be reduced to accommodate low flow, dragging, and portages.Low(none)(none)
USGSExternal icon USGS Site (External icon Google Maps)Poor - River is too low to float comfortably. Most or all riffles will drag or must be portaged and some obstacles (such as slick shelf rock) cause undue problems. Avoid the river at this stage for casual paddling trips.Poor(none)(none)

Trending Data

Plot Image

Trips for Missouri River (Missouri), Boonville (06909000)

DateStartEndDistanceConditionDischargeHeightFishingDetails

A total of 0 rows are displayed.

Condition Descriptions

Fishing Conditions

Fish Species

Notes

Classic Trip List

The classic River Trips application is still available for use. It is updated with the new system using a data retrofit. It is no longer maintained. The original River Trips application is no longer updated (as of 1 Dec 2016) but can be checked for errors or for the condition of the data before it was converted to the new system.

Gauge Data Table

ObservationHeightDischargeMaximum
Discharge
Minimum
Discharge
Mean
Discharge
P05P10P20P25P50
(Median)
P75P80P90P95
2020-08-06 11:30 13.89 94000 289000 (1993) 31700 (2002) 71400 35700 37000 43200 45600 58400 84600 85500 121000 150000
2020-08-06 10:30 13.89 94000 289000 (1993) 31700 (2002) 71400 35700 37000 43200 45600 58400 84600 85500 121000 150000
2020-08-06 09:30 13.91 94200 289000 (1993) 31700 (2002) 71400 35700 37000 43200 45600 58400 84600 85500 121000 150000
2020-08-06 08:30 13.96 94700 289000 (1993) 31700 (2002) 71400 35700 37000 43200 45600 58400 84600 85500 121000 150000
2020-08-06 07:30 13.91 94200 289000 (1993) 31700 (2002) 71400 35700 37000 43200 45600 58400 84600 85500 121000 150000
2020-08-06 06:30 14.01 95100 289000 (1993) 31700 (2002) 71400 35700 37000 43200 45600 58400 84600 85500 121000 150000
2020-08-06 05:30 14.00 95000 289000 (1993) 31700 (2002) 71400 35700 37000 43200 45600 58400 84600 85500 121000 150000
2020-08-06 04:30 14.06 95600 289000 (1993) 31700 (2002) 71400 35700 37000 43200 45600 58400 84600 85500 121000 150000
2020-08-06 03:30 14.02 95200 289000 (1993) 31700 (2002) 71400 35700 37000 43200 45600 58400 84600 85500 121000 150000
2020-08-06 02:30 14.09 95900 289000 (1993) 31700 (2002) 71400 35700 37000 43200 45600 58400 84600 85500 121000 150000
2020-08-06 01:30 14.12 96200 289000 (1993) 31700 (2002) 71400 35700 37000 43200 45600 58400 84600 85500 121000 150000
2020-08-06 00:30 14.19 96800 289000 (1993) 31700 (2002) 71400 35700 37000 43200 45600 58400 84600 85500 121000 150000
2020-08-05 23:30 14.20 96900 311000 (1993) 32200 (2002) 73000 35900 37400 42500 43600 55200 85500 91400 122000 193000
2020-08-05 22:30 14.20 96900 311000 (1993) 32200 (2002) 73000 35900 37400 42500 43600 55200 85500 91400 122000 193000
2020-08-05 21:30 14.19 96800 311000 (1993) 32200 (2002) 73000 35900 37400 42500 43600 55200 85500 91400 122000 193000
2020-08-05 20:30 14.33 98200 311000 (1993) 32200 (2002) 73000 35900 37400 42500 43600 55200 85500 91400 122000 193000
2020-08-05 19:30 14.30 97900 311000 (1993) 32200 (2002) 73000 35900 37400 42500 43600 55200 85500 91400 122000 193000
2020-08-05 18:30 14.38 98600 311000 (1993) 32200 (2002) 73000 35900 37400 42500 43600 55200 85500 91400 122000 193000
2020-08-05 17:30 14.36 98500 311000 (1993) 32200 (2002) 73000 35900 37400 42500 43600 55200 85500 91400 122000 193000
2020-08-05 16:30 14.35 98400 311000 (1993) 32200 (2002) 73000 35900 37400 42500 43600 55200 85500 91400 122000 193000
2020-08-05 15:30 14.51 99900 311000 (1993) 32200 (2002) 73000 35900 37400 42500 43600 55200 85500 91400 122000 193000
2020-08-05 14:30 14.54 100000 311000 (1993) 32200 (2002) 73000 35900 37400 42500 43600 55200 85500 91400 122000 193000
2020-08-05 13:30 14.55 100000 311000 (1993) 32200 (2002) 73000 35900 37400 42500 43600 55200 85500 91400 122000 193000
2020-08-05 12:30 14.60 101000 311000 (1993) 32200 (2002) 73000 35900 37400 42500 43600 55200 85500 91400 122000 193000
2020-08-05 11:30 14.64 101000 311000 (1993) 32200 (2002) 73000 35900 37400 42500 43600 55200 85500 91400 122000 193000
2020-08-05 10:30 14.66 101000 311000 (1993) 32200 (2002) 73000 35900 37400 42500 43600 55200 85500 91400 122000 193000
2020-08-05 09:30 14.73 102000 311000 (1993) 32200 (2002) 73000 35900 37400 42500 43600 55200 85500 91400 122000 193000
2020-08-05 08:30 14.77 102000 311000 (1993) 32200 (2002) 73000 35900 37400 42500 43600 55200 85500 91400 122000 193000
2020-08-05 07:30 14.82 103000 311000 (1993) 32200 (2002) 73000 35900 37400 42500 43600 55200 85500 91400 122000 193000
2020-08-05 06:30 14.88 104000 311000 (1993) 32200 (2002) 73000 35900 37400 42500 43600 55200 85500 91400 122000 193000
2020-08-05 05:30 14.88 104000 311000 (1993) 32200 (2002) 73000 35900 37400 42500 43600 55200 85500 91400 122000 193000
2020-08-05 04:30 14.93 104000 311000 (1993) 32200 (2002) 73000 35900 37400 42500 43600 55200 85500 91400 122000 193000
2020-08-05 03:30 15.00 105000 311000 (1993) 32200 (2002) 73000 35900 37400 42500 43600 55200 85500 91400 122000 193000
2020-08-05 02:30 15.05 105000 311000 (1993) 32200 (2002) 73000 35900 37400 42500 43600 55200 85500 91400 122000 193000
2020-08-05 01:30 15.09 106000 311000 (1993) 32200 (2002) 73000 35900 37400 42500 43600 55200 85500 91400 122000 193000
2020-08-05 00:30 15.10 106000 311000 (1993) 32200 (2002) 73000 35900 37400 42500 43600 55200 85500 91400 122000 193000
2020-08-04 23:30 15.19 107000 340000 (1993) 32800 (2002) 74900 36400 37200 42200 43200 56600 87200 101000 127000 209000
2020-08-04 22:30 15.22 107000 340000 (1993) 32800 (2002) 74900 36400 37200 42200 43200 56600 87200 101000 127000 209000
2020-08-04 21:30 15.26 107000 340000 (1993) 32800 (2002) 74900 36400 37200 42200 43200 56600 87200 101000 127000 209000
2020-08-04 20:30 15.32 108000 340000 (1993) 32800 (2002) 74900 36400 37200 42200 43200 56600 87200 101000 127000 209000
2020-08-04 19:30 15.37 109000 340000 (1993) 32800 (2002) 74900 36400 37200 42200 43200 56600 87200 101000 127000 209000
2020-08-04 18:30 15.40 109000 340000 (1993) 32800 (2002) 74900 36400 37200 42200 43200 56600 87200 101000 127000 209000
2020-08-04 17:30 15.47 110000 340000 (1993) 32800 (2002) 74900 36400 37200 42200 43200 56600 87200 101000 127000 209000
2020-08-04 16:30 15.52 110000 340000 (1993) 32800 (2002) 74900 36400 37200 42200 43200 56600 87200 101000 127000 209000
2020-08-04 15:30 15.52 110000 340000 (1993) 32800 (2002) 74900 36400 37200 42200 43200 56600 87200 101000 127000 209000
2020-08-04 14:30 15.56 111000 340000 (1993) 32800 (2002) 74900 36400 37200 42200 43200 56600 87200 101000 127000 209000
2020-08-04 13:30 15.66 112000 340000 (1993) 32800 (2002) 74900 36400 37200 42200 43200 56600 87200 101000 127000 209000
2020-08-04 12:30 15.68 112000 340000 (1993) 32800 (2002) 74900 36400 37200 42200 43200 56600 87200 101000 127000 209000
2020-08-04 11:30 15.76 113000 340000 (1993) 32800 (2002) 74900 36400 37200 42200 43200 56600 87200 101000 127000 209000
2020-08-04 10:30 15.81 113000 340000 (1993) 32800 (2002) 74900 36400 37200 42200 43200 56600 87200 101000 127000 209000
2020-08-04 09:30 15.87 114000 340000 (1993) 32800 (2002) 74900 36400 37200 42200 43200 56600 87200 101000 127000 209000
2020-08-04 08:30 15.93 114000 340000 (1993) 32800 (2002) 74900 36400 37200 42200 43200 56600 87200 101000 127000 209000
2020-08-04 07:30 15.98 115000 340000 (1993) 32800 (2002) 74900 36400 37200 42200 43200 56600 87200 101000 127000 209000
2020-08-04 06:30 16.04 116000 340000 (1993) 32800 (2002) 74900 36400 37200 42200 43200 56600 87200 101000 127000 209000
2020-08-04 05:30 16.07 116000 340000 (1993) 32800 (2002) 74900 36400 37200 42200 43200 56600 87200 101000 127000 209000
2020-08-04 04:30 16.13 117000 340000 (1993) 32800 (2002) 74900 36400 37200 42200 43200 56600 87200 101000 127000 209000
2020-08-04 03:30 16.18 117000 340000 (1993) 32800 (2002) 74900 36400 37200 42200 43200 56600 87200 101000 127000 209000
2020-08-04 02:30 16.27 118000 340000 (1993) 32800 (2002) 74900 36400 37200 42200 43200 56600 87200 101000 127000 209000
2020-08-04 01:30 16.33 119000 340000 (1993) 32800 (2002) 74900 36400 37200 42200 43200 56600 87200 101000 127000 209000
2020-08-04 00:30 16.40 120000 340000 (1993) 32800 (2002) 74900 36400 37200 42200 43200 56600 87200 101000 127000 209000
2020-08-03 23:30 16.48 121000 387000 (1993) 33500 (2002) 76500 36000 37700 42100 43100 57200 87200 96100 141000 211000
2020-08-03 22:30 16.54 121000 387000 (1993) 33500 (2002) 76500 36000 37700 42100 43100 57200 87200 96100 141000 211000
2020-08-03 21:30 16.61 122000 387000 (1993) 33500 (2002) 76500 36000 37700 42100 43100 57200 87200 96100 141000 211000
2020-08-03 20:30 16.70 123000 387000 (1993) 33500 (2002) 76500 36000 37700 42100 43100 57200 87200 96100 141000 211000
2020-08-03 19:30 16.77 124000 387000 (1993) 33500 (2002) 76500 36000 37700 42100 43100 57200 87200 96100 141000 211000
2020-08-03 18:30 16.87 125000 387000 (1993) 33500 (2002) 76500 36000 37700 42100 43100 57200 87200 96100 141000 211000
2020-08-03 17:30 16.95 126000 387000 (1993) 33500 (2002) 76500 36000 37700 42100 43100 57200 87200 96100 141000 211000
2020-08-03 16:30 17.01 127000 387000 (1993) 33500 (2002) 76500 36000 37700 42100 43100 57200 87200 96100 141000 211000
2020-08-03 15:30 17.11 128000 387000 (1993) 33500 (2002) 76500 36000 37700 42100 43100 57200 87200 96100 141000 211000
2020-08-03 14:30 17.19 129000 387000 (1993) 33500 (2002) 76500 36000 37700 42100 43100 57200 87200 96100 141000 211000
2020-08-03 13:30 17.27 130000 387000 (1993) 33500 (2002) 76500 36000 37700 42100 43100 57200 87200 96100 141000 211000
2020-08-03 12:30 17.37 131000 387000 (1993) 33500 (2002) 76500 36000 37700 42100 43100 57200 87200 96100 141000 211000
2020-08-03 11:30 17.42 131000 387000 (1993) 33500 (2002) 76500 36000 37700 42100 43100 57200 87200 96100 141000 211000
2020-08-03 10:30 17.53 133000 387000 (1993) 33500 (2002) 76500 36000 37700 42100 43100 57200 87200 96100 141000 211000
2020-08-03 09:30 17.62 134000 387000 (1993) 33500 (2002) 76500 36000 37700 42100 43100 57200 87200 96100 141000 211000
2020-08-03 08:30 17.74 135000 387000 (1993) 33500 (2002) 76500 36000 37700 42100 43100 57200 87200 96100 141000 211000
2020-08-03 07:30 17.89 137000 387000 (1993) 33500 (2002) 76500 36000 37700 42100 43100 57200 87200 96100 141000 211000
2020-08-03 06:30 17.98 138000 387000 (1993) 33500 (2002) 76500 36000 37700 42100 43100 57200 87200 96100 141000 211000
2020-08-03 05:30 18.15 141000 387000 (1993) 33500 (2002) 76500 36000 37700 42100 43100 57200 87200 96100 141000 211000
2020-08-03 04:30 18.23 142000 387000 (1993) 33500 (2002) 76500 36000 37700 42100 43100 57200 87200 96100 141000 211000
2020-08-03 03:30 18.35 143000 387000 (1993) 33500 (2002) 76500 36000 37700 42100 43100 57200 87200 96100 141000 211000
2020-08-03 02:30 18.52 145000 387000 (1993) 33500 (2002) 76500 36000 37700 42100 43100 57200 87200 96100 141000 211000
2020-08-03 01:30 18.63 147000 387000 (1993) 33500 (2002) 76500 36000 37700 42100 43100 57200 87200 96100 141000 211000
2020-08-03 00:30 18.76 148000 387000 (1993) 33500 (2002) 76500 36000 37700 42100 43100 57200 87200 96100 141000 211000

A total of 84 rows are displayed for years 1958 through 2019.